Flight Track Log - Related Links

Times and Time Zones

All times are in EST time to prevent confusion due to time zone crossing. See the UAL1097 flight status page for this flight to view local times or setup timezone preferences in your user account.

Time Position Orientation Groundspeed Altitude Reporting Facility
EST Latitude Longitude Course Direction KTS MPH feet Rate Location/Type
Wed 08:43:00 AM 10.3116 -84.3603 335° Northwest  Level FlightAware
Wed 08:44:00 AM 10.4175 -84.4109 335° Northwest  Level FlightAware
Wed 08:45:00 AM 10.5233 -84.4615 335° Northwest  Level FlightAware
Wed 08:46:00 AM 10.6292 -84.5121 335° Northwest  Level FlightAware
Wed 08:47:00 AM 10.7351 -84.5628 335° Northwest  Level FlightAware
Wed 08:48:00 AM 10.8409 -84.6135 335° Northwest  Level FlightAware
Wed 08:49:00 AM 10.9468 -84.6642 335° Northwest  Level FlightAware
Wed 08:50:00 AM 11.0526 -84.7150 335° Northwest  Level FlightAware
Wed 08:51:00 AM 11.1585 -84.7658 335° Northwest  Level FlightAware
Wed 08:52:00 AM 11.2643 -84.8166 335° Northwest  Level FlightAware
Wed 08:53:00 AM 11.3664 -84.8658 335° Northwest  Level FlightAware
Wed 08:54:00 AM 11.4686 -84.9149 335° Northwest  Level FlightAware
Wed 08:55:00 AM 11.5708 -84.9641 335° Northwest  Level FlightAware
Wed 08:56:00 AM 11.6722 -85.0148 336° Northwest  Level Estimated
Wed 08:57:00 AM 11.7754 -85.0618 336° Northwest  Level FlightAware
Wed 08:58:00 AM 11.8785 -85.1089 336° Northwest  Level FlightAware
Wed 08:59:00 AM 11.9817 -85.1559 336° Northwest  Level FlightAware
Wed 09:00:00 AM 12.0848 -85.2030 336° Northwest  Level FlightAware
Wed 09:01:00 AM 12.1862 -85.2540 335° Northwest  Level Estimated
Wed 09:02:00 AM 12.2885 -85.3030 335° Northwest  Level FlightAware
Wed 09:03:00 AM 12.3907 -85.3521 335° Northwest  Level FlightAware
Wed 09:04:00 AM 12.4930 -85.4012 335° Northwest  Level FlightAware
Wed 09:05:00 AM 12.5953 -85.4504 335° Northwest  Level FlightAware
Wed 09:06:00 AM 12.6975 -85.4995 335° Northwest  Level FlightAware
Wed 09:07:00 AM 12.7998 -85.5488 335° Northwest  Level FlightAware
Wed 09:08:00 AM 12.9020 -85.5981 335° Northwest  Level FlightAware
Wed 09:09:00 AM 13.0042 -85.6474 335° Northwest  Level FlightAware
Wed 09:10:00 AM 13.1064 -85.6967 335° Northwest  Level FlightAware
Wed 09:11:00 AM 13.2086 -85.7461 335° Northwest  Level FlightAware
Wed 09:12:00 AM 13.3108 -85.7955 335° Northwest  Level FlightAware
Wed 09:13:00 AM 13.4145 -85.8457 335° Northwest  Level FlightAware
Wed 09:14:00 AM 13.5182 -85.8960 335° Northwest  Level FlightAware
Wed 09:15:00 AM 13.6219 -85.9463 335° Northwest  Level FlightAware
Wed 09:16:00 AM 13.7256 -85.9967 335° Northwest  Level FlightAware
Wed 09:17:00 AM 13.8293 -86.0471 335° Northwest  Level FlightAware
Wed 09:18:00 AM 13.9330 -86.0975 335° Northwest  Level FlightAware
Wed 09:19:00 AM 14.0366 -86.1480 335° Northwest  Level FlightAware
Wed 09:20:00 AM 14.1403 -86.1985 335° Northwest  Level FlightAware
Wed 09:21:00 AM 14.2439 -86.2491 335° Northwest  Level FlightAware
Wed 09:22:00 AM 14.3476 -86.2997 335° Northwest  Level FlightAware
Wed 09:23:00 AM 14.4512 -86.3504 335° Northwest  Level FlightAware
Wed 09:24:00 AM 14.5548 -86.4011 335° Northwest  Level FlightAware
Wed 09:25:00 AM 14.6584 -86.4519 335° Northwest  Level FlightAware
Wed 09:26:00 AM 14.7619 -86.5027 335° Northwest  Level FlightAware
Wed 09:27:00 AM 14.8655 -86.5535 335° Northwest  Level FlightAware
Wed 09:28:00 AM 14.9691 -86.6044 335° Northwest  Level FlightAware
Wed 09:29:00 AM 15.0726 -86.6554 335° Northwest  Level FlightAware
Wed 09:30:00 AM 15.1762 -86.7064 335° Northwest  Level FlightAware
Wed 09:31:00 AM 15.2786 -86.7599 334° Northwest  Level Estimated
Wed 09:32:00 AM 15.3821 -86.8109 335° Northwest  Level FlightAware
Wed 09:33:00 AM 15.4856 -86.8621 335° Northwest  Level FlightAware
Wed 09:34:00 AM 15.5891 -86.9132 335° Northwest  Level FlightAware
Wed 09:35:00 AM 15.6926 -86.9645 335° Northwest  Level FlightAware
Wed 09:36:00 AM 15.7961 -87.0157 335° Northwest  Level FlightAware
Wed 09:37:00 AM 15.8996 -87.0671 334° Northwest  Level FlightAware
Wed 09:38:00 AM 16.0030 -87.1185 334° Northwest  Level FlightAware
Wed 09:39:00 AM 16.1065 -87.1699 334° Northwest  Level FlightAware
Wed 09:40:00 AM 16.2099 -87.2214 334° Northwest  Level FlightAware
Wed 09:41:00 AM 16.3133 -87.2729 334° Northwest  Level FlightAware
Wed 09:42:00 AM 16.4167 -87.3245 334° Northwest  Level FlightAware
Wed 09:43:00 AM 16.5201 -87.3762 334° Northwest  Level FlightAware
Wed 09:44:00 AM 16.6235 -87.4279 334° Northwest  Level FlightAware
Wed 09:45:00 AM 16.7269 -87.4797 334° Northwest  Level FlightAware
Wed 09:46:00 AM 16.8289 -87.5342 334° Northwest  Level Estimated
Wed 09:47:00 AM 16.9322 -87.5862 334° Northwest  Level FlightAware
Wed 09:48:00 AM 17.0355 -87.6382 334° Northwest  Level FlightAware
Wed 09:49:00 AM 17.1388 -87.6903 334° Northwest  Level FlightAware
Wed 09:50:00 AM 17.2420 -87.7425 334° Northwest  Level FlightAware
Wed 09:51:00 AM 17.3453 -87.7947 334° Northwest  Level FlightAware
Wed 09:52:00 AM 17.4485 -87.8470 334° Northwest  Level FlightAware
Wed 09:53:00 AM 17.5517 -87.8993 334° Northwest  Level FlightAware
Wed 09:54:00 AM 17.6549 -87.9517 334° Northwest  Level FlightAware
Wed 09:55:00 AM 17.7581 -88.0042 334° Northwest  Level FlightAware
Wed 09:56:00 AM 17.8613 -88.0567 334° Northwest  Level FlightAware
Wed 09:57:00 AM 17.9644 -88.1093 334° Northwest  Level FlightAware
Wed 09:58:00 AM 18.0676 -88.1619 334° Northwest  Level FlightAware
Wed 09:59:00 AM 18.1707 -88.2146 334° Northwest  Level FlightAware
Wed 10:00:00 AM 18.2738 -88.2674 334° Northwest  Level FlightAware
Wed 10:01:00 AM 18.3755 -88.3231 336° Northwest  Level Estimated
Wed 10:02:00 AM 18.4802 -88.3725 336° Northwest  Level FlightAware
Wed 10:03:00 AM 18.5798 -88.4273 334° Northwest  Level Estimated
Wed 10:04:00 AM 18.6810 -88.4791 334° Northwest  Level FlightAware
Wed 10:05:00 AM 18.7821 -88.5309 334° Northwest  Level FlightAware
Wed 10:06:00 AM 18.8832 -88.5827 334° Northwest  Level FlightAware
Wed 10:07:00 AM 18.9844 -88.6346 334° Northwest  Level FlightAware
Wed 10:08:00 AM 19.0854 -88.6866 334° Northwest  Level FlightAware
Wed 10:09:00 AM 19.1865 -88.7387 334° Northwest  Level FlightAware
Wed 10:10:00 AM 19.2876 -88.7908 334° Northwest  Level FlightAware
Wed 10:11:00 AM 19.3886 -88.8430 334° Northwest  Level FlightAware
Wed 10:12:00 AM 19.4896 -88.8952 334° Northwest  Level FlightAware
Wed 10:13:00 AM 19.5907 -88.9475 334° Northwest  Level FlightAware
Wed 10:14:00 AM 19.6917 -88.9999 334° Northwest  Level FlightAware
Wed 10:15:00 AM 19.7926 -89.0523 334° Northwest  Level FlightAware
Wed 10:16:00 AM 19.8936 -89.1048 334° Northwest  Level FlightAware
Wed 10:17:00 AM 19.9946 -89.1574 334° Northwest  Level FlightAware
Wed 10:18:00 AM 20.0955 -89.2101 334° Northwest  Level FlightAware
Wed 10:19:00 AM 20.1964 -89.2628 334° Northwest  Level FlightAware
Wed 10:20:00 AM 20.2973 -89.3155 334° Northwest  Level FlightAware
Wed 10:21:00 AM 20.3982 -89.3684 334° Northwest  Level FlightAware
Wed 10:22:00 AM 20.4991 -89.4213 334° Northwest  Level FlightAware
Wed 10:23:00 AM 20.5999 -89.4743 334° Northwest  Level FlightAware
Wed 10:24:00 AM 20.7008 -89.5274 334° Northwest  Level FlightAware
Wed 10:25:00 AM 20.7997 -89.5844 336° Northwest  Level Estimated
Wed 10:26:00 AM 20.9024 -89.6334 336° Northwest  Level FlightAware
Wed 10:27:00 AM 21.0050 -89.6825 336° Northwest  Level FlightAware
Wed 10:28:00 AM 21.1038 -89.7399 337° Northwest  Level Estimated
Wed 10:29:00 AM 21.2079 -89.7854 338° Northwest  Level FlightAware
Wed 10:30:00 AM 21.3120 -89.8309 338° Northwest  Level FlightAware
Wed 10:31:00 AM 21.4106 -89.8888 337° Northwest  Level Estimated
Wed 10:32:00 AM 21.5141 -89.9361 337° Northwest  Level FlightAware
Wed 10:33:00 AM 21.6175 -89.9834 337° Northwest  Level FlightAware
Wed 10:34:00 AM 21.7209 -90.0307 337° Northwest  Level FlightAware
Wed 10:35:00 AM 21.8243 -90.0782 337° Northwest  Level FlightAware
Wed 10:36:00 AM 21.9277 -90.1257 337° Northwest  Level FlightAware
Wed 10:37:00 AM 22.0311 -90.1733 337° Northwest  Level FlightAware
Wed 10:38:00 AM 22.1345 -90.2209 337° Northwest  Level FlightAware
Wed 10:39:00 AM 22.2378 -90.2686 337° Northwest  Level FlightAware
Wed 10:40:00 AM 22.3412 -90.3164 337° Northwest  Level FlightAware
Wed 10:41:00 AM 22.4445 -90.3643 337° Northwest  Level FlightAware
Wed 10:42:00 AM 22.5473 -90.4120 337° Northwest  Level FlightAware
Wed 10:43:00 AM 22.6501 -90.4598 337° Northwest  Level FlightAware
Wed 10:44:00 AM 22.7528 -90.5076 337° Northwest  Level FlightAware
Wed 10:45:00 AM 22.8556 -90.5555 337° Northwest  Level FlightAware
Wed 10:46:00 AM 22.9584 -90.6035 337° Northwest  Level FlightAware
Wed 10:47:00 AM 23.0611 -90.6516 337° Northwest  Level FlightAware
Wed 10:48:00 AM 23.1638 -90.6997 337° Northwest  Level FlightAware
Wed 10:49:00 AM 23.2665 -90.7479 337° Northwest  Level FlightAware
Wed 10:50:00 AM 23.3692 -90.7962 337° Northwest  Level FlightAware
Wed 10:51:00 AM 23.4719 -90.8445 337° Northwest  Level FlightAware
Wed 10:52:00 AM 23.5746 -90.8929 337° Northwest  Level FlightAware
Wed 10:53:00 AM 23.6772 -90.9415 337° Northwest  Level FlightAware
Wed 10:54:00 AM 23.7798 -90.9900 337° Northwest  Level FlightAware
Wed 10:55:00 AM 23.8825 -91.0387 337° Northwest  Level FlightAware
Wed 10:56:00 AM 23.9851 -91.0874 337° Northwest  Level FlightAware
Wed 10:57:00 AM 24.0876 -91.1362 337° Northwest  Level FlightAware
Wed 10:58:00 AM 24.1902 -91.1851 337° Northwest  Level FlightAware
Wed 10:59:00 AM 24.2927 -91.2341 336° Northwest  Level FlightAware
Wed 11:00:00 AM 24.3878 -91.2988 330° Northwest  Level Estimated
Wed 11:01:00 AM 24.4854 -91.3589 331° Northwest  Level FlightAware
Wed 11:02:00 AM 24.5829 -91.4190 331° Northwest  Level FlightAware
Wed 11:03:00 AM 24.6805 -91.4793 331° Northwest  Level FlightAware
Wed 11:04:00 AM 24.7780 -91.5396 331° Northwest  Level FlightAware
Wed 11:05:00 AM 24.8754 -91.6001 331° Northwest  Level FlightAware
Wed 11:06:00 AM 24.9729 -91.6606 331° Northwest  Level FlightAware
Wed 11:07:00 AM 25.0703 -91.7212 331° Northwest  Level FlightAware
Wed 11:08:00 AM 25.1677 -91.7820 331° Northwest  Level FlightAware
Wed 11:09:00 AM 25.2651 -91.8428 331° Northwest  Level FlightAware
Wed 11:10:00 AM 25.3625 -91.9037 331° Northwest  Level FlightAware
Wed 11:11:00 AM 25.4598 -91.9647 330° Northwest  Level FlightAware
Wed 11:12:00 AM 25.5566 -92.0256 330° Northwest  Level FlightAware
Wed 11:13:00 AM 25.6502 -92.0924 330° Northwest  Level Estimated
Wed 11:14:00 AM 25.7467 -92.1539 330° Northwest  Level FlightAware
Wed 11:14:29 AM 26.5486 -92.6781 330° Northwest 425 489 36,000  Level Houston Center
Wed 11:15:00 AM 25.8432 -92.2156 330° Northwest  Level FlightAware
Wed 11:15:32 AM 26.6514 -92.7444 330° Northwest 425 489 36,000  Level Houston Center
Wed 11:16:00 AM 25.9397 -92.2773 330° Northwest  Level FlightAware
Wed 11:16:34 AM 26.7553 -92.8144 329° Northwest 430 495 36,000  Level Houston Center
Wed 11:17:00 AM 26.0361 -92.3392 330° Northwest  Level FlightAware
Wed 11:17:36 AM 26.8672 -92.8717 335° Northwest 438 504 36,000  Level Houston Center
Wed 11:18:00 AM 26.1325 -92.4011 330° Northwest  Level FlightAware
Wed 11:18:38 AM 26.9847 -92.9139 342° North 444 511 35,900  Level Houston Center
Wed 11:19:00 AM 26.2289 -92.4632 330° Northwest  Level FlightAware
Wed 11:19:40 AM 27.1033 -92.9647 339° North 439 505 36,000  Level Houston Center
Wed 11:20:42 AM 27.2167 -93.0103 340° North 434 499 36,000 -48 Level Houston Center
Wed 11:21:45 AM 27.3497 -93.0619 341° North 436 502 35,900  Descending Houston Center
Wed 11:22:47 AM 27.4631 -93.1100 339° North 436 502 36,000 48 Climbing Houston Center
Wed 11:23:49 AM 27.5783 -93.1569 340° North 438 504 36,000  Level Houston Center
Wed 11:24:51 AM 27.6931 -93.2056 339° North 439 505 36,000  Level Houston Center
Wed 11:25:53 AM 27.8128 -93.2478 343° North 436 502 36,000  Level Houston Center
Wed 11:26:55 AM 27.9283 -93.2908 342° North 436 502 36,000  Level Houston Center
Wed 11:27:59 AM 28.0661 -93.3422 342° North 435 501 36,000  Level Houston Center
Wed 11:29:00 AM 28.1797 -93.3864 341° North 433 498 36,000  Level Houston Center
Wed 11:30:02 AM 28.2928 -93.4275 342° North 428 493 36,000  Level Houston Center
Wed 11:31:04 AM 28.4064 -93.4697 342° North 429 494 36,000  Level Houston Center
Wed 11:32:06 AM 28.5189 -93.5133 341° North 427 491 36,000  Level Houston Center
Wed 11:33:08 AM 28.6544 -93.5636 342° North 427 491 36,000  Level Houston Center
Wed 11:34:10 AM 28.7669 -93.6067 341° North 427 491 36,000 -1,113 Level Houston Center
Wed 11:35:12 AM 28.8758 -93.6478 342° North 424 488 33,700 -2,400 Descending Houston Center
Wed 11:36:15 AM 28.9889 -93.6908 342° North 425 489 31,000 -2,352 Descending Houston Center
Wed 11:37:17 AM 29.1003 -93.7342 341° North 422 486 28,800 -2,274 Descending Houston Center
Wed 11:38:19 AM 29.2294 -93.7817 342° North 406 467 26,300 -2,226 Descending Houston Center
Wed 11:39:21 AM 29.3325 -93.8228 341° North 393 452 24,200 -1,984 Descending Houston Center
Wed 11:40:23 AM 29.4333 -93.8606 342° North 383 441 22,200 -1,965 Descending Houston Center
Wed 11:41:14 AM 29.5100 -93.9181 327° Northwest 356 410 20,500 -1,839 Descending Houston Center
Wed 11:41:25 AM 29.5128 -93.9211 316° Northwest 354 407 20,300 -1,895 Descending Houston Center
Wed 11:41:33 AM 29.5175 -93.9508 280° West 342 394 19,900 -1,886 Descending Houston Center
Wed 11:42:35 AM 29.5219 -94.0558 273° West 338 389 18,100 -1,744 Descending Houston Center
Wed 11:43:30 AM 29.5269 -94.1375 274° West 340 391 16,500 -2,066 Descending Houston Center
Wed 11:43:36 AM 29.5272 -94.1706 271° West 340 391 16,000 -2,226 Descending Houston Center
Wed 11:44:32 AM 29.5314 -94.2667 273° West 338 389 14,200 -1,935 Descending Houston Center
Wed 11:44:38 AM 29.5300 -94.2808 264° West 334 384 14,000 -1,452 Descending Houston Center
Wed 11:45:34 AM 29.5422 -94.3678 279° West 325 374 12,700 -1,377 Descending Houston Center
Wed 11:45:39 AM 29.5461 -94.3797 291° West 311 358 12,600 -871 Descending Houston Center
Wed 11:46:36 AM 29.5806 -94.4528 298° West 301 346 11,800 -1,082 Descending Houston Center
Wed 11:46:40 AM 29.5842 -94.4661 287° West 287 330 11,500 -1,839 Descending Houston Center
Wed 11:47:38 AM 29.6153 -94.5344 298° West 288 331 9,900 -1,869 Descending Houston Center
Wed 11:47:41 AM 29.6219 -94.5525 293° West 294 338 9,600 -1,543 Descending Houston Center
Wed 11:48:48 AM 29.6603 -94.6414 296° West 286 329 8,100 -1,438 Descending Houston Center
Wed 11:49:42 AM 29.6919 -94.7147 296° West 284 327 6,700 -1,548 Descending Houston Center
Wed 11:49:50 AM 29.6958 -94.7283 288° West 282 325 6,500 -696 Descending Houston Center
Wed 11:50:51 AM 29.7308 -94.8083 297° West 272 313 5,900 -256 Descending Houston Center
Wed 11:51:47 AM 29.7581 -94.8717 296° West 273 314 6,000 97 Climbing Houston Center
Wed 11:51:53 AM 29.7636 -94.8861 294° West 273 314 6,000  Level Houston Center
Wed 11:52:49 AM 29.7906 -94.9494 296° West 273 314 6,000  Level Houston Center
Wed 11:52:54 AM 29.7986 -94.9683 296° West 272 313 6,000  Level Houston Center
Wed 11:53:51 AM 29.8233 -95.0267 296° West 272 313 6,000  Level Houston Center
Wed 11:53:55 AM 29.8314 -95.0486 293° West 272 313 6,000  Level Houston Center
Wed 11:54:51 AM 29.8614 -95.1219 295° West 274 315 6,000  Level Houston Center
Wed 11:54:53 AM 29.8628 -95.1197 54° Northeast 273 314 6,000 -94 Level Houston Center
Wed 11:55:55 AM 29.8942 -95.1981 295° West 273 314 5,900  Descending Houston Center
Wed 11:55:58 AM 29.8969 -95.2117 283° West 278 320 6,000 97 Climbing Houston Center
Wed 11:56:57 AM 29.8997 -95.2839 273° West 275 316 6,000  Level Houston Center
Wed 11:57:00 AM 29.8986 -95.2981 265° West 269 310 6,000  Level Houston Center
Wed 11:57:59 AM 29.9003 -95.3681 272° West 267 307 6,000 -541 Level Houston Center
Wed 11:59:02 AM 29.9000 -95.4469 270° West 255 293 4,900 -1,210 Descending Houston Center
Wed 12:00:03 PM 29.9108 -95.5472 277° West 260 299 3,500 -1,355 Descending Houston Center
Wed 12:00:04 PM 29.9103 -95.5442 102° East 263 303 3,500 -590 Level Houston Center
Wed 12:01:04 PM 29.9644 -95.5361 North 207 238 2,900 -581 Descending Houston Center
Wed 12:01:06 PM 29.9650 -95.5364 337° Northwest 232 267 2,900 -590 Level Houston Center
Wed 12:02:05 PM 29.9892 -95.4825 63° Northeast 181 208 2,300 -484 Descending Houston Center
Wed 12:02:08 PM 29.9886 -95.4836 240° Southwest 200 230 2,400 -871 Climbing Houston Center
Wed 12:03:07 PM 29.9928 -95.4314 85° East 139 160 1,400 -871 Descending Houston Center
Wed 12:03:10 PM 29.9944 -95.4347 300° West 171 197 1,500 -787 Climbing Houston Center
Wed 12:04:08 PM 29.9928 -95.3833 92° East 151 174 600 -774 Descending Houston Center
Wed 12:04:12 PM 29.9931 -95.3878 274° West 153 176 700 -182 Climbing Houston Center
Wed 12:05:14 PM 29.9925 -95.3319 91° East 151 174 400 -290 Descending Houston Center

Login

Don't have an account? Register now (free) for customized features, flight alerts, and more!